Back to Top

Language: 

My Weather Underground Personal Weather Station Historical Data with Graphs...

Delerius Weather Station Historical Data
Daily Summary for December 13, 2017 Units:  Metric    English   Both
« Previous Day
Next Day »
Daily Weekly Monthly Yearly Custom
  High: Low: Average:
Temperature: 6.8 °C 1.8 °C 4.3 °C
Dew Point: 4.9 °C 0.8 °C 2.9 °C
Humidity: 95 % 86 % 91 %
Wind Speed: 35.4 km/h 0 km/h 14.6 km/h
Wind Gust: 57.9 km/h - -
Wind:- - WSW
Pressure: 998.9 hPa 984.3 hPa -
Precipitation: 4.32 mm    
Historical Graphs
 
 
Tabular Data for December 13, 2017
Time Temperature Dew Point Pressure Wind Wind Speed Wind Gust Humidity Rainfall Rate (Hourly) solar Conditions
00:02 4.3 °C 3.4 °C 998.9 hPa SW 14.5 km/h 22.5 km/h 94 % 0 mm 0 W/m2
00:07 4.3 °C 3.3 °C 998.9 hPa SW 6.4 km/h 11.3 km/h 93 % 0 mm 0 W/m2
00:13 4.3 °C 3.3 °C 998.9 hPa WSW 8 km/h 14.5 km/h 93 % 0 mm 0 W/m2
00:17 4.3 °C 3.3 °C 998.9 hPa WSW 6.4 km/h 12.9 km/h 93 % 0 mm 0 W/m2
00:23 4.3 °C 3.3 °C 998.9 hPa SW 3.2 km/h 6.4 km/h 93 % 0 mm 0 W/m2
00:28 4.2 °C 3.2 °C 998.9 hPa SW 1.6 km/h 6.4 km/h 93 % 0 mm 0 W/m2
00:33 4.1 °C 3.1 °C 998.9 hPa SW 1.6 km/h 6.4 km/h 93 % 0 mm 0 W/m2
00:38 4.1 °C 3.1 °C 998.9 hPa SSW 3.2 km/h 9.7 km/h 93 % 0 mm 0 W/m2
00:43 4 °C 2.9 °C 998.9 hPa SW 1.6 km/h 6.4 km/h 93 % 0 mm 0 W/m2
00:48 4.1 °C 3.2 °C 998.9 hPa West 9.7 km/h 17.7 km/h 94 % 0 mm 0 W/m2
00:53 4.3 °C 3.4 °C 998.9 hPa West 11.3 km/h 17.7 km/h 94 % 0 mm 0 W/m2
01:03 4.6 °C 3.7 °C 998.9 hPa West 11.3 km/h 17.7 km/h 94 % 0 mm 0 W/m2
01:08 4.7 °C 3.8 °C 998.9 hPa West 9.7 km/h 14.5 km/h 94 % 0 mm 0 W/m2
01:13 4.7 °C 3.8 °C 998.5 hPa West 9.7 km/h 16.1 km/h 94 % 0 mm 0 W/m2
01:18 4.6 °C 3.7 °C 998.9 hPa West 6.4 km/h 11.3 km/h 94 % 0 mm 0 W/m2
01:30 4.5 °C 3.4 °C 998.9 hPa West 8 km/h 14.5 km/h 93 % 0 mm 0 W/m2
01:35 4.5 °C 3.4 °C 998.5 hPa West 11.3 km/h 17.7 km/h 93 % 0 mm 0 W/m2
01:40 4.5 °C 3.4 °C 998.9 hPa West 9.7 km/h 16.1 km/h 93 % 0 mm 0 W/m2
01:45 4.5 °C 3.4 °C 998.9 hPa West 6.4 km/h 12.9 km/h 93 % 0 mm 0 W/m2
01:55 4.4 °C 3.4 °C 998.5 hPa Calm   6.4 km/h 93 % 0 mm 0 W/m2
02:05 4.3 °C 3.3 °C 998.5 hPa Calm   1.6 km/h 93 % 0 mm 0 W/m2
02:10 4.3 °C 3.4 °C 998.5 hPa Calm     94 % 0 mm 0 W/m2
02:15 4.3 °C 3.4 °C 998.5 hPa Calm   1.6 km/h 94 % 0 mm 0 W/m2
02:20 4.3 °C 3.3 °C 998.5 hPa Calm     93 % 0 mm 0 W/m2
02:25 4.2 °C 3.2 °C 998.5 hPa Calm     93 % 0 mm 0 W/m2
02:40 4.2 °C 3.3 °C 998.5 hPa WSW 1.6 km/h 8 km/h 94 % 0 mm 0 W/m2
02:45 4.2 °C 3.3 °C 998.5 hPa SW 1.6 km/h 4.8 km/h 94 % 0 mm 0 W/m2
02:50 4.1 °C 3.2 °C 998.5 hPa WSW 1.6 km/h 8 km/h 94 % 0 mm 0 W/m2
02:55 4.1 °C 3.2 °C 998.5 hPa Calm     94 % 0 mm 0 W/m2
03:00 4 °C 2.9 °C 998.5 hPa Calm     93 % 0 mm 0 W/m2
03:05 3.8 °C 2.8 °C 998.5 hPa Calm   4.8 km/h 93 % 0 mm 0 W/m2
03:10 3.8 °C 2.9 °C 998.5 hPa SW 4.8 km/h 12.9 km/h 94 % 0 mm 0 W/m2
03:20 3.9 °C 3 °C 998.2 hPa Calm   1.6 km/h 94 % 0 mm 0 W/m2
03:21 3.9 °C 3 °C 998.2 hPa Calm   4.8 km/h 94 % 0 mm 0 W/m2
03:31 3.8 °C 2.9 °C 998.2 hPa SW 3.2 km/h 8 km/h 94 % 0 mm 0 W/m2
03:37 3.8 °C 2.9 °C 998.2 hPa WSW 6.4 km/h 9.7 km/h 94 % 0 mm 0 W/m2
03:47 4.1 °C 3.4 °C 997.9 hPa West 9.7 km/h 17.7 km/h 95 % 0 mm 0 W/m2
03:52 4.3 °C 3.6 °C 997.5 hPa WSW 12.9 km/h 20.9 km/h 95 % 0 mm 0 W/m2
04:02 4.6 °C 3.7 °C 997.5 hPa West 11.3 km/h 17.7 km/h 94 % 0 mm 0 W/m2
04:07 4.6 °C 3.7 °C 997.5 hPa West 8 km/h 16.1 km/h 94 % 0 mm 0 W/m2
04:17 4.7 °C 3.8 °C 997.5 hPa West 9.7 km/h 17.7 km/h 94 % 0 mm 0 W/m2
04:22 4.8 °C 3.9 °C 997.5 hPa West 8 km/h 11.3 km/h 94 % 0 mm 0 W/m2
04:27 4.9 °C 4 °C 997.5 hPa WSW 14.5 km/h 20.9 km/h 94 % 0 mm 0 W/m2
04:37 5.2 °C 4.2 °C 997.5 hPa WSW 12.9 km/h 24.1 km/h 93 % 0 mm 0 W/m2
04:47 5.3 °C 4.1 °C 997.5 hPa WSW 12.9 km/h 30.6 km/h 92 % 0 mm 0 W/m2
04:52 5.3 °C 4.1 °C 997.2 hPa WSW 16.1 km/h 24.1 km/h 92 % 0 mm 0 W/m2
04:57 5.4 °C 4.2 °C 997.2 hPa WSW 14.5 km/h 22.5 km/h 92 % 0 mm 0 W/m2
05:02 5.4 °C 4.2 °C 997.2 hPa WSW 14.5 km/h 22.5 km/h 92 % 0 mm 0 W/m2
05:07 5.4 °C 4.1 °C 996.8 hPa WSW 12.9 km/h 20.9 km/h 91 % 0 mm 0 W/m2
05:12 5.4 °C 4.1 °C 996.8 hPa West 11.3 km/h 17.7 km/h 91 % 0 mm 0 W/m2
05:17 5.3 °C 3.9 °C 996.8 hPa WSW 12.9 km/h 19.3 km/h 91 % 0 mm 0 W/m2
05:32 5.4 °C 4.1 °C 996.8 hPa WSW 17.7 km/h 32.2 km/h 91 % 0 mm 0 W/m2
05:37 5.5 °C 4.2 °C 996.8 hPa WSW 14.5 km/h 19.3 km/h 91 % 0 mm 0 W/m2
05:42 5.5 °C 4.2 °C 996.8 hPa WSW 17.7 km/h 29 km/h 91 % 0 mm 0 W/m2
05:47 5.6 °C 4.2 °C 996.8 hPa WSW 19.3 km/h 32.2 km/h 91 % 0 mm 0 W/m2
06:07 5.6 °C 4.2 °C 996.5 hPa WSW 17.7 km/h 25.7 km/h 91 % 0 mm 0 W/m2
06:12 5.6 °C 4.2 °C 996.2 hPa WSW 20.9 km/h 29 km/h 91 % 0 mm 0 W/m2
06:17 5.7 °C 4.2 °C 996.2 hPa WSW 16.1 km/h 25.7 km/h 90 % 0 mm 0 W/m2
06:22 5.7 °C 4.2 °C 996.2 hPa WSW 16.1 km/h 22.5 km/h 90 % 0 mm 0 W/m2
06:27 5.7 °C 4.2 °C 996.2 hPa WSW 12.9 km/h 20.9 km/h 90 % 0 mm 0 W/m2
06:37 5.7 °C 4.2 °C 995.8 hPa WSW 11.3 km/h 17.7 km/h 90 % 0 mm 0 W/m2
06:42 5.6 °C 4.1 °C 995.8 hPa SW 11.3 km/h 19.3 km/h 90 % 0 mm 0 W/m2
06:57 5.5 °C 4 °C 995.8 hPa SW 12.9 km/h 19.3 km/h 90 % 0 mm 0 W/m2
07:02 5.4 °C 3.9 °C 995.8 hPa SW 14.5 km/h 22.5 km/h 90 % 0 mm 0 W/m2
07:12 5.3 °C 3.8 °C 995.5 hPa WSW 14.5 km/h 20.9 km/h 90 % 0 mm 0 W/m2
07:22 5.3 °C 3.8 °C 995.5 hPa SW 11.3 km/h 19.3 km/h 90 % 0 mm 0 W/m2
07:27 5.3 °C 3.8 °C 995.5 hPa SW 11.3 km/h 17.7 km/h 90 % 0 mm 0 W/m2
07:47 5.2 °C 3.7 °C 995.1 hPa SW 9.7 km/h 17.7 km/h 90 % 0 mm 0 W/m2
07:52 5.1 °C 3.6 °C 995.1 hPa SW 14.5 km/h 22.5 km/h 90 % 0 mm 0 W/m2
07:57 5.1 °C 3.6 °C 995.1 hPa SW 17.7 km/h 24.1 km/h 90 % 0 mm 0 W/m2
08:02 5.1 °C 3.6 °C 995.1 hPa SW 14.5 km/h 20.9 km/h 90 % 0 mm 0 W/m2
08:07 5.1 °C 3.6 °C 994.8 hPa SW 14.5 km/h 22.5 km/h 90 % 0 mm 0 W/m2
08:12 5.1 °C 3.6 °C 994.8 hPa SW 16.1 km/h 24.1 km/h 90 % 0 mm 0 W/m2
08:17 5.1 °C 3.6 °C 994.8 hPa SW 14.5 km/h 22.5 km/h 90 % 0 mm 0 W/m2
08:22 5.1 °C 3.6 °C 994.8 hPa SW 16.1 km/h 29 km/h 90 % 0 mm 0 W/m2
08:27 5.1 °C 3.6 °C 994.5 hPa SW 11.3 km/h 17.7 km/h 90 % 0 mm 0 W/m2
08:32 5 °C 3.5 °C 994.5 hPa SW 9.7 km/h 17.7 km/h 90 % 0 mm 0 W/m2
08:42 5 °C 3.7 °C 994.1 hPa SW 11.3 km/h 19.3 km/h 91 % 0.25 mm 9 W/m2
08:47 5 °C 3.7 °C 993.8 hPa SW 12.9 km/h 20.9 km/h 91 % 0.25 mm 7 W/m2
08:53 4.9 °C 3.6 °C 993.8 hPa SW 9.7 km/h 16.1 km/h 91 % 0.25 mm 9 W/m2
08:58 4.9 °C 3.6 °C 993.8 hPa SW 9.7 km/h 17.7 km/h 91 % 0.25 mm 9 W/m2
09:13 4.8 °C 3.6 °C 993.1 hPa SSW 11.3 km/h 17.7 km/h 92 % 0.25 mm 11 W/m2
09:18 4.8 °C 3.6 °C 993.1 hPa SSW 8 km/h 12.9 km/h 92 % 0.25 mm 9 W/m2
09:23 4.8 °C 3.6 °C 993.1 hPa SSW 8 km/h 12.9 km/h 92 % 0.25 mm 14 W/m2
09:28 4.8 °C 3.6 °C 993.1 hPa SSW 8 km/h 14.5 km/h 92 % 0.25 mm 14 W/m2
09:33 4.8 °C 3.6 °C 992.8 hPa SSW 8 km/h 14.5 km/h 92 % 0.25 mm 19 W/m2
09:38 4.8 °C 3.6 °C 992.8 hPa South 4.8 km/h 11.3 km/h 92 % 0.25 mm 18 W/m2
09:50 4.9 °C 3.7 °C 992.4 hPa SSW 8 km/h 14.5 km/h 92 % 0 mm 46 W/m2
10:00 5 °C 3.8 °C 992.1 hPa SSW 8 km/h 14.5 km/h 92 % 0 mm 28 W/m2
10:05 5.1 °C 3.9 °C 992.1 hPa SW 9.7 km/h 20.9 km/h 92 % 0 mm 40 W/m2
10:15 5.5 °C 4.3 °C 991.8 hPa SW 19.3 km/h 29 km/h 92 % 0 mm 51 W/m2
10:30 5.8 °C 4.3 °C 991.1 hPa SW 16.1 km/h 29 km/h 90 % 0 mm 44 W/m2
10:35 5.8 °C 4.3 °C 991.1 hPa SW 17.7 km/h 30.6 km/h 90 % 0 mm 60 W/m2
10:40 5.8 °C 4.3 °C 991.1 hPa SW 14.5 km/h 22.5 km/h 90 % 0 mm 93 W/m2
10:45 5.9 °C 4.4 °C 990.7 hPa WSW 20.9 km/h 29 km/h 90 % 0 mm 142 W/m2
10:46 5.9 °C 4.4 °C 990.7 hPa WSW 19.3 km/h 29 km/h 90 % 0 mm 223 W/m2
10:56 6.4 °C 4.7 °C 990.7 hPa SW 20.9 km/h 35.4 km/h 89 % 0 mm 234 W/m2
11:01 6.6 °C 4.8 °C 990.4 hPa SW 20.9 km/h 30.6 km/h 88 % 0 mm 243 W/m2
11:06 6.8 °C 4.9 °C 990.1 hPa SSW 16.1 km/h 25.7 km/h 88 % 0 mm 241 W/m2
11:11 6.7 °C 4.7 °C 990.1 hPa SW 16.1 km/h 24.1 km/h 87 % 0 mm 123 W/m2
11:26 6.4 °C 4.6 °C 989.7 hPa SSW 17.7 km/h 25.7 km/h 88 % 0 mm 91 W/m2
11:36 6.6 °C 4.9 °C 989.4 hPa SW 14.5 km/h 32.2 km/h 89 % 0 mm 220 W/m2
11:41 6.6 °C 4.8 °C 989.4 hPa SSW 14.5 km/h 25.7 km/h 88 % 0 mm 72 W/m2
11:46 6.4 °C 4.6 °C 989.1 hPa SSW 16.1 km/h 25.7 km/h 88 % 0 mm 116 W/m2
11:51 6.4 °C 4.6 °C 988.7 hPa SW 14.5 km/h 22.5 km/h 88 % 0 mm 192 W/m2
11:56 6.4 °C 4.7 °C 988.7 hPa SW 14.5 km/h 24.1 km/h 89 % 0 mm 63 W/m2
12:01 6.4 °C 4.7 °C 988.7 hPa SSW 14.5 km/h 29 km/h 89 % 0 mm 58 W/m2
12:06 6.3 °C 4.6 °C 988.4 hPa SW 17.7 km/h 32.2 km/h 89 % 0 mm 44 W/m2
12:16 6.2 °C 4.7 °C 988 hPa SW 17.7 km/h 24.1 km/h 90 % 0 mm 67 W/m2
12:21 6.2 °C 4.7 °C 988 hPa SW 11.3 km/h 16.1 km/h 90 % 0 mm 58 W/m2
12:26 6.2 °C 4.7 °C 987.7 hPa SW 11.3 km/h 19.3 km/h 90 % 0.25 mm 165 W/m2
12:31 6.2 °C 4.8 °C 987.7 hPa SW 16.1 km/h 24.1 km/h 91 % 0.25 mm 46 W/m2
12:39 6.1 °C 4.7 °C 987.4 hPa SW 12.9 km/h 20.9 km/h 91 % 0.25 mm 37 W/m2
13:04 6.1 °C 4.6 °C 987.7 hPa WSW 22.5 km/h 37 km/h 90 % 0.76 mm 18 W/m2
13:09 5.9 °C 4.4 °C 987.7 hPa West 27.4 km/h 43.5 km/h 90 % 1.02 mm 49 W/m2
13:14 5.8 °C 4.3 °C 987.7 hPa West 20.9 km/h 30.6 km/h 90 % 1.02 mm 46 W/m2
13:19 5.7 °C 4.3 °C 987.7 hPa West 27.4 km/h 40.2 km/h 91 % 1.52 mm 30 W/m2
13:24 5.6 °C 4.2 °C 987.7 hPa West 19.3 km/h 35.4 km/h 91 % 1.52 mm 33 W/m2
13:29 5.4 °C 4.1 °C 987.7 hPa West 14.5 km/h 32.2 km/h 91 % 1.52 mm 40 W/m2
13:39 5.2 °C 3.8 °C 988 hPa West 14.5 km/h 25.7 km/h 91 % 1.52 mm 14 W/m2
13:44 5.1 °C 3.8 °C 987.7 hPa West 12.9 km/h 22.5 km/h 91 % 1.52 mm 12 W/m2
13:49 4.9 °C 3.6 °C 987.7 hPa WNW 19.3 km/h 37 km/h 91 % 1.78 mm 11 W/m2
13:54 4.8 °C 3.4 °C 987.7 hPa West 16.1 km/h 22.5 km/h 91 % 2.03 mm 21 W/m2
13:59 4.6 °C 3.3 °C 987.4 hPa West 20.9 km/h 30.6 km/h 91 % 1.78 mm 23 W/m2
14:04 4.4 °C 3.2 °C 987.4 hPa West 11.3 km/h 20.9 km/h 92 % 1.52 mm 30 W/m2
14:09 4.4 °C 3.2 °C 987.4 hPa West 11.3 km/h 17.7 km/h 92 % 1.52 mm 26 W/m2
14:14 4.4 °C 3.2 °C 987.4 hPa West 11.3 km/h 17.7 km/h 92 % 1.52 mm 11 W/m2
14:19 4.3 °C 3.1 °C 987.4 hPa West 9.7 km/h 14.5 km/h 92 % 1.02 mm 12 W/m2
14:24 4.3 °C 3.1 °C 987.4 hPa West 9.7 km/h 14.5 km/h 92 % 1.02 mm 25 W/m2
14:39 4.3 °C 3.3 °C 987 hPa West 19.3 km/h 33.8 km/h 93 % 1.02 mm 44 W/m2
14:44 4.4 °C 3.2 °C 987 hPa WNW 27.4 km/h 41.8 km/h 92 % 0.76 mm 33 W/m2
14:54 4.6 °C 3.3 °C 987 hPa WNW 22.5 km/h 35.4 km/h 91 % 0.25 mm 42 W/m2
14:59 4.5 °C 3.2 °C 987 hPa WNW 16.1 km/h 22.5 km/h 91 % 0.25 mm 39 W/m2
15:04 4.4 °C 3.1 °C 987 hPa WNW 16.1 km/h 25.7 km/h 91 % 0.25 mm 21 W/m2
15:09 4.3 °C 2.9 °C 986.7 hPa West 16.1 km/h 24.1 km/h 91 % 0.25 mm 16 W/m2
15:14 4.3 °C 2.9 °C 987 hPa West 20.9 km/h 33.8 km/h 91 % 0.25 mm 11 W/m2
15:19 4.2 °C 2.9 °C 987 hPa West 22.5 km/h 45.1 km/h 91 % 0.25 mm 11 W/m2
15:24 4.2 °C 2.6 °C 987 hPa West 19.3 km/h 30.6 km/h 89 % 0.25 mm 12 W/m2
15:34 4.1 °C 2.3 °C 987 hPa West 16.1 km/h 25.7 km/h 88 % 0 mm 11 W/m2
15:54 3.9 °C 1.9 °C 987 hPa West 19.3 km/h 30.6 km/h 87 % 0 mm 0 W/m2
15:59 3.9 °C 1.9 °C 987 hPa West 22.5 km/h 38.6 km/h 87 % 0 mm 0 W/m2
16:04 3.8 °C 1.7 °C 987 hPa West 17.7 km/h 33.8 km/h 86 % 0 mm 0 W/m2
16:09 3.8 °C 1.7 °C 987 hPa West 22.5 km/h 33.8 km/h 86 % 0 mm 0 W/m2
16:15 3.7 °C 1.7 °C 986.7 hPa West 22.5 km/h 38.6 km/h 87 % 0 mm 0 W/m2
16:20 3.5 °C 1.7 °C 986.7 hPa West 20.9 km/h 29 km/h 88 % 0 mm 0 W/m2
16:25 3.4 °C 1.6 °C 986.7 hPa WNW 22.5 km/h 37 km/h 88 % 0 mm 0 W/m2
16:30 3.3 °C 1.7 °C 986.7 hPa WNW 20.9 km/h 33.8 km/h 89 % 0 mm 0 W/m2
16:35 3.3 °C 1.7 °C 986.7 hPa WNW 19.3 km/h 29 km/h 89 % 0 mm 0 W/m2
16:40 3.3 °C 1.7 °C 986.7 hPa WNW 14.5 km/h 22.5 km/h 89 % 0 mm 0 W/m2
16:45 3.2 °C 1.6 °C 986.7 hPa West 14.5 km/h 22.5 km/h 89 % 0 mm 0 W/m2
16:50 3.2 °C 1.6 °C 986.7 hPa West 17.7 km/h 30.6 km/h 89 % 0 mm 0 W/m2
16:55 3.4 °C 1.9 °C 986.7 hPa West 20.9 km/h 35.4 km/h 90 % 0 mm 0 W/m2
17:00 3.6 °C 2.1 °C 986.7 hPa West 20.9 km/h 35.4 km/h 90 % 0 mm 0 W/m2
17:10 3.6 °C 1.9 °C 986.3 hPa West 24.1 km/h 35.4 km/h 89 % 0 mm 0 W/m2
17:15 3.7 °C 2.1 °C 986.3 hPa West 22.5 km/h 40.2 km/h 89 % 0 mm 0 W/m2
17:20 3.7 °C 2.1 °C 986.3 hPa West 24.1 km/h 33.8 km/h 89 % 0 mm 0 W/m2
17:25 3.8 °C 2.2 °C 986.3 hPa West 19.3 km/h 30.6 km/h 89 % 0 mm 0 W/m2
17:30 3.8 °C 2 °C 986.3 hPa West 20.9 km/h 32.2 km/h 88 % 0 mm 0 W/m2
17:35 3.8 °C 1.8 °C 986.3 hPa West 22.5 km/h 33.8 km/h 87 % 0 mm 0 W/m2
17:40 3.9 °C 1.9 °C 986.3 hPa West 20.9 km/h 35.4 km/h 87 % 0 mm 0 W/m2
17:45 3.9 °C 1.8 °C 986.3 hPa West 16.1 km/h 29 km/h 86 % 0 mm 0 W/m2
17:50 3.8 °C 1.7 °C 986.3 hPa West 17.7 km/h 40.2 km/h 86 % 0 mm 0 W/m2
17:55 3.8 °C 1.7 °C 986.3 hPa West 22.5 km/h 38.6 km/h 86 % 0 mm 0 W/m2
18:00 3.8 °C 1.7 °C 986 hPa West 25.7 km/h 37 km/h 86 % 0 mm 0 W/m2
18:05 3.8 °C 1.7 °C 986 hPa West 20.9 km/h 38.6 km/h 86 % 0 mm 0 W/m2
18:10 3.8 °C 1.7 °C 986 hPa West 17.7 km/h 29 km/h 86 % 0 mm 0 W/m2
18:15 3.7 °C 1.6 °C 985.7 hPa West 20.9 km/h 32.2 km/h 86 % 0 mm 0 W/m2
18:20 3.7 °C 1.6 °C 985.7 hPa West 19.3 km/h 32.2 km/h 86 % 0 mm 0 W/m2
18:25 3.6 °C 1.5 °C 985.7 hPa West 14.5 km/h 24.1 km/h 86 % 0 mm 0 W/m2
18:26 3.6 °C 1.5 °C 985.7 hPa West 16.1 km/h 24.1 km/h 86 % 0 mm 0 W/m2
18:31 3.5 °C 1.6 °C 985.3 hPa West 16.1 km/h 29 km/h 87 % 0 mm 0 W/m2
18:32 3.5 °C 1.6 °C 985.3 hPa West 19.3 km/h 29 km/h 87 % 0 mm 0 W/m2
18:42 3.5 °C 1.6 °C 985 hPa West 22.5 km/h 35.4 km/h 87 % 0 mm 0 W/m2
18:47 3.4 °C 1.4 °C 985 hPa West 20.9 km/h 33.8 km/h 87 % 0 mm 0 W/m2
18:52 3.3 °C 1.3 °C 985 hPa West 17.7 km/h 22.5 km/h 87 % 0 mm 0 W/m2
18:57 3.3 °C 1.5 °C 984.6 hPa West 19.3 km/h 32.2 km/h 88 % 0 mm 0 W/m2
19:23 3.4 °C 1.4 °C 984.3 hPa West 17.7 km/h 25.7 km/h 87 % 0 mm 0 W/m2
19:38 3.5 °C 1.6 °C 984.6 hPa West 17.7 km/h 29 km/h 87 % 0 mm 0 W/m2
19:39 3.5 °C 1.6 °C 984.6 hPa West 17.7 km/h 29 km/h 87 % 0 mm 0 W/m2
19:44 3.6 °C 1.5 °C 984.6 hPa West 17.7 km/h 24.1 km/h 86 % 0 mm 0 W/m2
19:49 3.6 °C 1.5 °C 984.6 hPa West 20.9 km/h 32.2 km/h 86 % 0 mm 0 W/m2
19:59 3.4 °C 1.4 °C 984.6 hPa West 22.5 km/h 35.4 km/h 87 % 0 mm 0 W/m2
20:04 3.3 °C 1.5 °C 984.6 hPa West 16.1 km/h 25.7 km/h 88 % 0 mm 0 W/m2
20:09 3.2 °C 1.4 °C 985 hPa West 19.3 km/h 35.4 km/h 88 % 0 mm 0 W/m2
20:19 3.2 °C 1.4 °C 985 hPa West 22.5 km/h 35.4 km/h 88 % 0 mm 0 W/m2
20:24 3.1 °C 1.4 °C 985 hPa West 25.7 km/h 40.2 km/h 89 % 0 mm 0 W/m2
20:29 2.9 °C 1.4 °C 985 hPa West 19.3 km/h 37 km/h 90 % 0 mm 0 W/m2
20:34 2.8 °C 1.3 °C 985 hPa West 19.3 km/h 29 km/h 90 % 0.25 mm 0 W/m2
20:39 2.7 °C 1.4 °C 985 hPa West 19.3 km/h 30.6 km/h 91 % 0.25 mm 0 W/m2
20:44 2.6 °C 1.3 °C 985.3 hPa West 16.1 km/h 24.1 km/h 91 % 0.25 mm 0 W/m2
20:49 2.5 °C 1.2 °C 985.3 hPa West 19.3 km/h 30.6 km/h 91 % 0.25 mm 0 W/m2
20:54 2.4 °C 1.2 °C 985.3 hPa West 14.5 km/h 22.5 km/h 92 % 0.25 mm 0 W/m2
20:59 2.4 °C 1.2 °C 985.3 hPa West 19.3 km/h 37 km/h 92 % 0.25 mm 0 W/m2
21:04 2.4 °C 1.2 °C 985.3 hPa West 16.1 km/h 25.7 km/h 92 % 0.25 mm 0 W/m2
21:09 2.4 °C 1.2 °C 985.3 hPa West 16.1 km/h 30.6 km/h 92 % 0.25 mm 0 W/m2
21:24 2.2 °C 1.1 °C 985.7 hPa West 12.9 km/h 24.1 km/h 92 % 0.51 mm 0 W/m2
21:29 2.1 °C 0.9 °C 985.7 hPa West 12.9 km/h 20.9 km/h 92 % 0.51 mm 0 W/m2
21:34 2 °C 1 °C 985.3 hPa West 11.3 km/h 19.3 km/h 93 % 0.51 mm 0 W/m2
21:39 1.9 °C 0.9 °C 985.3 hPa West 11.3 km/h 19.3 km/h 93 % 0.51 mm 0 W/m2
21:44 1.9 °C 0.9 °C 985.3 hPa West 11.3 km/h 16.1 km/h 93 % 0.51 mm 0 W/m2
21:49 1.9 °C 0.9 °C 985.3 hPa West 11.3 km/h 16.1 km/h 93 % 0.51 mm 0 W/m2
21:59 1.9 °C 0.9 °C 985.7 hPa West 14.5 km/h 24.1 km/h 93 % 0.51 mm 0 W/m2
22:04 2 °C 1 °C 985.7 hPa West 17.7 km/h 29 km/h 93 % 0.51 mm 0 W/m2
22:14 2.1 °C 1.1 °C 985.7 hPa WNW 17.7 km/h 29 km/h 93 % 0.51 mm 0 W/m2
22:24 1.9 °C 0.9 °C 985.3 hPa WNW 19.3 km/h 25.7 km/h 93 % 0.51 mm 0 W/m2
22:29 1.8 °C 0.8 °C 985.7 hPa West 11.3 km/h 17.7 km/h 93 % 0.51 mm 0 W/m2
22:31 1.8 °C 0.8 °C 985.7 hPa West 12.9 km/h 19.3 km/h 93 % 0.51 mm 0 W/m2
22:36 1.8 °C 0.8 °C 985.7 hPa West 11.3 km/h 17.7 km/h 93 % 0.76 mm 0 W/m2
22:41 1.9 °C 1.1 °C 985.3 hPa West 12.9 km/h 19.3 km/h 94 % 0.76 mm 0 W/m2
22:46 1.9 °C 1.1 °C 985.7 hPa West 12.9 km/h 19.3 km/h 94 % 0.76 mm 0 W/m2
22:51 2.1 °C 1.2 °C 985.3 hPa West 20.9 km/h 33.8 km/h 94 % 0.76 mm 0 W/m2
22:56 2.1 °C 1.1 °C 985.3 hPa West 20.9 km/h 33.8 km/h 93 % 0.76 mm 0 W/m2
23:06 2.2 °C 1.2 °C 985.7 hPa West 20.9 km/h 35.4 km/h 93 % 0.76 mm 0 W/m2
23:11 2.3 °C 1.3 °C 985.7 hPa West 24.1 km/h 38.6 km/h 93 % 0.76 mm 0 W/m2
23:16 2.4 °C 1.2 °C 985.7 hPa WNW 25.7 km/h 40.2 km/h 92 % 0.51 mm 0 W/m2
23:26 2.7 °C 1.2 °C 985.7 hPa West 35.4 km/h 56.3 km/h 90 % 0.25 mm 0 W/m2
23:27 2.7 °C 1.2 °C 985.7 hPa West 35.4 km/h 57.9 km/h 90 % 0.25 mm 0 W/m2
23:32 2.4 °C 0.8 °C 985.7 hPa WNW 27.4 km/h 46.7 km/h 89 % 0 mm 0 W/m2
23:37 2.4 °C 0.9 °C 985.3 hPa WNW 24.1 km/h 37 km/h 90 % 0 mm 0 W/m2
23:52 2.3 °C 0.8 °C 985.7 hPa West 17.7 km/h 30.6 km/h 90 % 0 mm 0 W/m2
23:57 2.3 °C 1 °C 985.7 hPa West 19.3 km/h 32.2 km/h 91 % 0 mm 0 W/m2
Delerius-Weather
Compliments of Weather Underground - 2 mb

Data updates at regular intervals.